sensor_id;sensor_type;location;lat;lon;timestamp;P1;durP1;ratioP1;P2;durP2;ratioP2
29246;SDS011;16272;48.188;9.964;2023-12-20T00:02:22;6.40;;;1.70;;
29246;SDS011;16272;48.188;9.964;2023-12-20T00:04:47;6.10;;;1.90;;
29246;SDS011;16272;48.188;9.964;2023-12-20T00:07:12;6.20;;;1.90;;
29246;SDS011;16272;48.188;9.964;2023-12-20T00:09:38;6.13;;;2.00;;
29246;SDS011;16272;48.188;9.964;2023-12-20T00:12:03;5.63;;;1.85;;
29246;SDS011;16272;48.188;9.964;2023-12-20T00:14:28;6.45;;;2.03;;
29246;SDS011;16272;48.188;9.964;2023-12-20T00:16:54;6.43;;;2.00;;
29246;SDS011;16272;48.188;9.964;2023-12-20T00:19:19;6.43;;;1.90;;
29246;SDS011;16272;48.188;9.964;2023-12-20T00:21:45;6.87;;;2.00;;
29246;SDS011;16272;48.188;9.964;2023-12-20T00:24:10;6.40;;;2.00;;
29246;SDS011;16272;48.188;9.964;2023-12-20T00:26:35;6.55;;;1.90;;
29246;SDS011;16272;48.188;9.964;2023-12-20T00:29:00;6.40;;;2.07;;
29246;SDS011;16272;48.188;9.964;2023-12-20T00:31:26;6.20;;;1.93;;
29246;SDS011;16272;48.188;9.964;2023-12-20T00:33:51;6.27;;;2.00;;
29246;SDS011;16272;48.188;9.964;2023-12-20T00:36:16;6.40;;;1.93;;
29246;SDS011;16272;48.188;9.964;2023-12-20T00:38:42;6.70;;;2.20;;
29246;SDS011;16272;48.188;9.964;2023-12-20T00:41:07;6.10;;;1.90;;
29246;SDS011;16272;48.188;9.964;2023-12-20T00:43:32;6.23;;;1.90;;
29246;SDS011;16272;48.188;9.964;2023-12-20T00:45:58;6.18;;;2.10;;
29246;SDS011;16272;48.188;9.964;2023-12-20T00:48:25;6.43;;;2.17;;
29246;SDS011;16272;48.188;9.964;2023-12-20T00:50:52;6.82;;;2.20;;
29246;SDS011;16272;48.188;9.964;2023-12-20T00:53:17;7.07;;;2.23;;
29246;SDS011;16272;48.188;9.964;2023-12-20T00:55:42;6.67;;;2.30;;
29246;SDS011;16272;48.188;9.964;2023-12-20T00:58:09;7.32;;;2.60;;
29246;SDS011;16272;48.188;9.964;2023-12-20T01:00:34;6.63;;;2.17;;
29246;SDS011;16272;48.188;9.964;2023-12-20T01:02:59;6.40;;;2.20;;
29246;SDS011;16272;48.188;9.964;2023-12-20T01:05:25;7.97;;;2.37;;
29246;SDS011;16272;48.188;9.964;2023-12-20T01:07:50;7.03;;;2.23;;
29246;SDS011;16272;48.188;9.964;2023-12-20T01:10:15;6.80;;;2.40;;
29246;SDS011;16272;48.188;9.964;2023-12-20T01:12:40;6.80;;;2.40;;
29246;SDS011;16272;48.188;9.964;2023-12-20T01:15:06;6.75;;;2.30;;
29246;SDS011;16272;48.188;9.964;2023-12-20T01:17:31;7.13;;;2.40;;
29246;SDS011;16272;48.188;9.964;2023-12-20T01:19:57;7.50;;;2.60;;
29246;SDS011;16272;48.188;9.964;2023-12-20T01:22:23;7.22;;;2.42;;
29246;SDS011;16272;48.188;9.964;2023-12-20T01:24:48;7.17;;;2.47;;
29246;SDS011;16272;48.188;9.964;2023-12-20T01:27:13;6.90;;;2.40;;
29246;SDS011;16272;48.188;9.964;2023-12-20T01:29:38;7.30;;;2.57;;
29246;SDS011;16272;48.188;9.964;2023-12-20T01:32:04;7.00;;;2.50;;
29246;SDS011;16272;48.188;9.964;2023-12-20T01:34:30;6.35;;;2.05;;
29246;SDS011;16272;48.188;9.964;2023-12-20T01:36:55;6.90;;;2.30;;
29246;SDS011;16272;48.188;9.964;2023-12-20T01:39:20;7.40;;;3.10;;
29246;SDS011;16272;48.188;9.964;2023-12-20T01:41:46;7.20;;;2.40;;
29246;SDS011;16272;48.188;9.964;2023-12-20T01:44:11;7.18;;;2.38;;
29246;SDS011;16272;48.188;9.964;2023-12-20T01:46:36;7.60;;;2.80;;
29246;SDS011;16272;48.188;9.964;2023-12-20T01:49:02;7.43;;;2.50;;
29246;SDS011;16272;48.188;9.964;2023-12-20T01:51:27;7.17;;;2.70;;
29246;SDS011;16272;48.188;9.964;2023-12-20T01:53:54;6.13;;;1.80;;
29246;SDS011;16272;48.188;9.964;2023-12-20T01:56:22;6.90;;;2.40;;
29246;SDS011;16272;48.188;9.964;2023-12-20T01:58:47;6.88;;;2.40;;
29246;SDS011;16272;48.188;9.964;2023-12-20T02:01:13;6.93;;;2.30;;
29246;SDS011;16272;48.188;9.964;2023-12-20T02:03:42;6.90;;;2.30;;
29246;SDS011;16272;48.188;9.964;2023-12-20T02:06:07;6.45;;;2.13;;
29246;SDS011;16272;48.188;9.964;2023-12-20T02:08:34;7.15;;;2.30;;
29246;SDS011;16272;48.188;9.964;2023-12-20T02:11:00;6.70;;;2.10;;
29246;SDS011;16272;48.188;9.964;2023-12-20T02:13:26;6.43;;;1.80;;
29246;SDS011;16272;48.188;9.964;2023-12-20T02:15:51;6.80;;;2.33;;
29246;SDS011;16272;48.188;9.964;2023-12-20T02:18:17;7.33;;;2.17;;
29246;SDS011;16272;48.188;9.964;2023-12-20T02:20:42;7.10;;;2.40;;
29246;SDS011;16272;48.188;9.964;2023-12-20T02:23:08;6.57;;;2.27;;
29246;SDS011;16272;48.188;9.964;2023-12-20T02:25:33;7.30;;;2.53;;
29246;SDS011;16272;48.188;9.964;2023-12-20T02:27:58;7.10;;;2.60;;
29246;SDS011;16272;48.188;9.964;2023-12-20T02:30:24;6.50;;;2.07;;
29246;SDS011;16272;48.188;9.964;2023-12-20T02:32:49;6.37;;;2.10;;
29246;SDS011;16272;48.188;9.964;2023-12-20T02:35:15;6.30;;;1.93;;
29246;SDS011;16272;48.188;9.964;2023-12-20T02:37:40;6.50;;;2.30;;
29246;SDS011;16272;48.188;9.964;2023-12-20T02:40:05;6.90;;;2.30;;
29246;SDS011;16272;48.188;9.964;2023-12-20T02:42:31;7.77;;;2.13;;
29246;SDS011;16272;48.188;9.964;2023-12-20T02:44:57;6.18;;;2.00;;
29246;SDS011;16272;48.188;9.964;2023-12-20T02:47:22;6.37;;;1.90;;
29246;SDS011;16272;48.188;9.964;2023-12-20T02:49:47;7.10;;;2.53;;
29246;SDS011;16272;48.188;9.964;2023-12-20T02:52:13;7.50;;;2.27;;
29246;SDS011;16272;48.188;9.964;2023-12-20T02:54:38;6.70;;;2.40;;
29246;SDS011;16272;48.188;9.964;2023-12-20T02:57:03;7.20;;;2.63;;
29246;SDS011;16272;48.188;9.964;2023-12-20T02:59:29;7.10;;;2.23;;
29246;SDS011;16272;48.188;9.964;2023-12-20T03:01:54;5.33;;;1.57;;
29246;SDS011;16272;48.188;9.964;2023-12-20T03:04:19;6.33;;;2.83;;
29246;SDS011;16272;48.188;9.964;2023-12-20T03:06:44;8.10;;;2.50;;
29246;SDS011;16272;48.188;9.964;2023-12-20T03:09:10;7.50;;;2.53;;
29246;SDS011;16272;48.188;9.964;2023-12-20T03:11:35;8.07;;;2.67;;
29246;SDS011;16272;48.188;9.964;2023-12-20T03:14:00;6.90;;;2.10;;
29246;SDS011;16272;48.188;9.964;2023-12-20T03:16:26;7.10;;;2.50;;
29246;SDS011;16272;48.188;9.964;2023-12-20T03:18:51;6.90;;;2.10;;
29246;SDS011;16272;48.188;9.964;2023-12-20T03:21:16;7.20;;;1.87;;
29246;SDS011;16272;48.188;9.964;2023-12-20T03:23:42;6.37;;;1.67;;
29246;SDS011;16272;48.188;9.964;2023-12-20T03:26:07;5.93;;;1.67;;
29246;SDS011;16272;48.188;9.964;2023-12-20T03:28:33;7.10;;;2.30;;
29246;SDS011;16272;48.188;9.964;2023-12-20T03:30:59;7.40;;;2.58;;
29246;SDS011;16272;48.188;9.964;2023-12-20T03:33:24;7.97;;;2.57;;
29246;SDS011;16272;48.188;9.964;2023-12-20T03:35:49;7.30;;;2.90;;
29246;SDS011;16272;48.188;9.964;2023-12-20T03:38:15;7.00;;;1.90;;
29246;SDS011;16272;48.188;9.964;2023-12-20T03:40:40;8.03;;;2.50;;
29246;SDS011;16272;48.188;9.964;2023-12-20T03:43:05;7.82;;;2.85;;
29246;SDS011;16272;48.188;9.964;2023-12-20T03:45:31;6.90;;;1.87;;
29246;SDS011;16272;48.188;9.964;2023-12-20T03:47:56;5.83;;;1.50;;
29246;SDS011;16272;48.188;9.964;2023-12-20T03:50:22;7.17;;;2.23;;
29246;SDS011;16272;48.188;9.964;2023-12-20T03:52:48;6.43;;;2.10;;
29246;SDS011;16272;48.188;9.964;2023-12-20T03:55:13;7.67;;;2.33;;
29246;SDS011;16272;48.188;9.964;2023-12-20T03:57:38;7.33;;;2.60;;
29246;SDS011;16272;48.188;9.964;2023-12-20T04:00:04;7.40;;;2.60;;
29246;SDS011;16272;48.188;9.964;2023-12-20T04:02:34;7.18;;;2.40;;
29246;SDS011;16272;48.188;9.964;2023-12-20T04:04:59;7.53;;;2.53;;
29246;SDS011;16272;48.188;9.964;2023-12-20T04:07:24;8.00;;;2.83;;
29246;SDS011;16272;48.188;9.964;2023-12-20T04:09:50;7.20;;;2.67;;
29246;SDS011;16272;48.188;9.964;2023-12-20T04:12:15;7.03;;;2.37;;
29246;SDS011;16272;48.188;9.964;2023-12-20T04:14:40;8.37;;;2.80;;
29246;SDS011;16272;48.188;9.964;2023-12-20T04:17:05;7.80;;;2.80;;
29246;SDS011;16272;48.188;9.964;2023-12-20T04:19:31;7.55;;;2.88;;
29246;SDS011;16272;48.188;9.964;2023-12-20T04:21:56;7.77;;;2.60;;
29246;SDS011;16272;48.188;9.964;2023-12-20T04:24:21;6.17;;;1.87;;
29246;SDS011;16272;48.188;9.964;2023-12-20T04:26:47;7.88;;;2.75;;
29246;SDS011;16272;48.188;9.964;2023-12-20T04:29:12;7.90;;;2.60;;
29246;SDS011;16272;48.188;9.964;2023-12-20T04:31:38;7.57;;;2.80;;
29246;SDS011;16272;48.188;9.964;2023-12-20T04:34:03;7.87;;;2.90;;
29246;SDS011;16272;48.188;9.964;2023-12-20T04:36:28;7.47;;;2.63;;
29246;SDS011;16272;48.188;9.964;2023-12-20T04:38:55;8.15;;;3.00;;
29246;SDS011;16272;48.188;9.964;2023-12-20T04:41:20;8.27;;;3.20;;
29246;SDS011;16272;48.188;9.964;2023-12-20T04:43:45;8.77;;;3.07;;
29246;SDS011;16272;48.188;9.964;2023-12-20T04:46:10;8.90;;;3.47;;
29246;SDS011;16272;48.188;9.964;2023-12-20T04:48:36;9.07;;;3.20;;
29246;SDS011;16272;48.188;9.964;2023-12-20T04:51:01;8.40;;;3.10;;
29246;SDS011;16272;48.188;9.964;2023-12-20T04:53:27;7.97;;;3.17;;
29246;SDS011;16272;48.188;9.964;2023-12-20T04:55:52;8.32;;;3.22;;
29246;SDS011;16272;48.188;9.964;2023-12-20T04:58:18;8.37;;;3.07;;
29246;SDS011;16272;48.188;9.964;2023-12-20T05:00:44;8.43;;;3.30;;
29246;SDS011;16272;48.188;9.964;2023-12-20T05:03:09;8.47;;;3.37;;
29246;SDS011;16272;48.188;9.964;2023-12-20T05:05:34;8.53;;;3.53;;
29246;SDS011;16272;48.188;9.964;2023-12-20T05:08:00;8.85;;;3.22;;
29246;SDS011;16272;48.188;9.964;2023-12-20T05:10:25;7.77;;;3.23;;
29246;SDS011;16272;48.188;9.964;2023-12-20T05:12:52;9.00;;;3.50;;
29246;SDS011;16272;48.188;9.964;2023-12-20T05:15:17;8.90;;;3.50;;
29246;SDS011;16272;48.188;9.964;2023-12-20T05:17:42;9.30;;;3.42;;
29246;SDS011;16272;48.188;9.964;2023-12-20T05:20:08;9.00;;;3.63;;
29246;SDS011;16272;48.188;9.964;2023-12-20T05:22:33;9.93;;;3.80;;
29246;SDS011;16272;48.188;9.964;2023-12-20T05:24:58;9.90;;;4.10;;
29246;SDS011;16272;48.188;9.964;2023-12-20T05:27:24;9.93;;;4.20;;
29246;SDS011;16272;48.188;9.964;2023-12-20T05:29:49;10.73;;;4.20;;
29246;SDS011;16272;48.188;9.964;2023-12-20T05:32:15;10.40;;;4.47;;
29246;SDS011;16272;48.188;9.964;2023-12-20T05:34:40;11.00;;;4.40;;
29246;SDS011;16272;48.188;9.964;2023-12-20T05:37:06;10.33;;;4.67;;
29246;SDS011;16272;48.188;9.964;2023-12-20T05:39:31;10.80;;;4.50;;
29246;SDS011;16272;48.188;9.964;2023-12-20T05:41:56;10.63;;;4.70;;
29246;SDS011;16272;48.188;9.964;2023-12-20T05:44:22;10.83;;;4.67;;
29246;SDS011;16272;48.188;9.964;2023-12-20T05:46:47;10.90;;;4.80;;
29246;SDS011;16272;48.188;9.964;2023-12-20T05:49:12;12.53;;;4.90;;
29246;SDS011;16272;48.188;9.964;2023-12-20T05:51:38;11.40;;;4.80;;
29246;SDS011;16272;48.188;9.964;2023-12-20T05:54:04;11.07;;;4.73;;
29246;SDS011;16272;48.188;9.964;2023-12-20T05:56:29;10.70;;;4.63;;
29246;SDS011;16272;48.188;9.964;2023-12-20T05:58:54;12.50;;;4.90;;
29246;SDS011;16272;48.188;9.964;2023-12-20T06:01:20;11.00;;;4.87;;
29246;SDS011;16272;48.188;9.964;2023-12-20T06:03:45;10.50;;;3.60;;
29246;SDS011;16272;48.188;9.964;2023-12-20T06:06:13;11.27;;;4.75;;
29246;SDS011;16272;48.188;9.964;2023-12-20T06:08:39;10.70;;;4.50;;
29246;SDS011;16272;48.188;9.964;2023-12-20T06:11:04;11.30;;;4.80;;
29246;SDS011;16272;48.188;9.964;2023-12-20T06:13:30;13.07;;;5.15;;
29246;SDS011;16272;48.188;9.964;2023-12-20T06:15:56;11.45;;;4.80;;
29246;SDS011;16272;48.188;9.964;2023-12-20T06:18:21;13.10;;;4.07;;
29246;SDS011;16272;48.188;9.964;2023-12-20T06:20:47;10.50;;;4.73;;
29246;SDS011;16272;48.188;9.964;2023-12-20T06:23:12;12.60;;;4.97;;
29246;SDS011;16272;48.188;9.964;2023-12-20T06:25:37;13.37;;;4.17;;
29246;SDS011;16272;48.188;9.964;2023-12-20T06:28:03;8.77;;;2.63;;
29246;SDS011;16272;48.188;9.964;2023-12-20T06:30:28;8.00;;;2.73;;
29246;SDS011;16272;48.188;9.964;2023-12-20T06:32:54;10.77;;;4.17;;
29246;SDS011;16272;48.188;9.964;2023-12-20T06:35:20;11.52;;;4.50;;
29246;SDS011;16272;48.188;9.964;2023-12-20T06:37:45;11.30;;;3.40;;
29246;SDS011;16272;48.188;9.964;2023-12-20T06:40:10;8.67;;;2.70;;
29246;SDS011;16272;48.188;9.964;2023-12-20T06:42:36;8.55;;;2.92;;
29246;SDS011;16272;48.188;9.964;2023-12-20T06:45:02;7.97;;;2.27;;
29246;SDS011;16272;48.188;9.964;2023-12-20T06:47:28;8.33;;;3.10;;
29246;SDS011;16272;48.188;9.964;2023-12-20T06:49:53;11.33;;;4.07;;
29246;SDS011;16272;48.188;9.964;2023-12-20T06:52:18;9.43;;;3.30;;
29246;SDS011;16272;48.188;9.964;2023-12-20T06:54:44;9.87;;;3.90;;
29246;SDS011;16272;48.188;9.964;2023-12-20T06:57:09;9.53;;;3.17;;
29246;SDS011;16272;48.188;9.964;2023-12-20T06:59:38;9.88;;;2.83;;
29246;SDS011;16272;48.188;9.964;2023-12-20T07:02:06;9.10;;;3.40;;
29246;SDS011;16272;48.188;9.964;2023-12-20T07:04:33;8.25;;;2.58;;
29246;SDS011;16272;48.188;9.964;2023-12-20T07:06:58;9.87;;;3.70;;
29246;SDS011;16272;48.188;9.964;2023-12-20T07:09:25;9.73;;;3.90;;
29246;SDS011;16272;48.188;9.964;2023-12-20T07:11:51;11.38;;;2.90;;
29246;SDS011;16272;48.188;9.964;2023-12-20T07:14:17;9.60;;;3.60;;
29246;SDS011;16272;48.188;9.964;2023-12-20T07:16:42;9.63;;;3.40;;
29246;SDS011;16272;48.188;9.964;2023-12-20T07:19:08;8.20;;;2.80;;
29246;SDS011;16272;48.188;9.964;2023-12-20T07:21:33;9.70;;;3.30;;
29246;SDS011;16272;48.188;9.964;2023-12-20T07:23:58;9.87;;;3.50;;
29246;SDS011;16272;48.188;9.964;2023-12-20T07:26:24;10.63;;;3.70;;
29246;SDS011;16272;48.188;9.964;2023-12-20T07:28:49;9.00;;;3.57;;
29246;SDS011;16272;48.188;9.964;2023-12-20T07:31:17;9.40;;;3.37;;
29246;SDS011;16272;48.188;9.964;2023-12-20T07:33:43;9.32;;;3.28;;
29246;SDS011;16272;48.188;9.964;2023-12-20T07:36:08;9.07;;;3.33;;
29246;SDS011;16272;48.188;9.964;2023-12-20T07:38:34;8.57;;;3.20;;
29246;SDS011;16272;48.188;9.964;2023-12-20T07:40:59;8.80;;;3.37;;
29246;SDS011;16272;48.188;9.964;2023-12-20T07:43:25;9.30;;;3.17;;
29246;SDS011;16272;48.188;9.964;2023-12-20T07:45:50;9.07;;;2.80;;
29246;SDS011;16272;48.188;9.964;2023-12-20T07:48:15;9.43;;;3.07;;
29246;SDS011;16272;48.188;9.964;2023-12-20T07:50:41;10.03;;;3.30;;
29246;SDS011;16272;48.188;9.964;2023-12-20T07:53:07;9.20;;;3.03;;
29246;SDS011;16272;48.188;9.964;2023-12-20T07:55:32;9.07;;;3.10;;
29246;SDS011;16272;48.188;9.964;2023-12-20T07:57:57;8.77;;;3.10;;
29246;SDS011;16272;48.188;9.964;2023-12-20T08:00:23;8.50;;;3.20;;
29246;SDS011;16272;48.188;9.964;2023-12-20T08:02:48;9.45;;;3.40;;
29246;SDS011;16272;48.188;9.964;2023-12-20T08:05:14;11.07;;;3.50;;
29246;SDS011;16272;48.188;9.964;2023-12-20T08:07:39;8.50;;;3.20;;
29246;SDS011;16272;48.188;9.964;2023-12-20T08:10:05;8.47;;;3.40;;
29246;SDS011;16272;48.188;9.964;2023-12-20T08:12:30;9.30;;;3.50;;
29246;SDS011;16272;48.188;9.964;2023-12-20T08:14:56;6.80;;;2.27;;
29246;SDS011;16272;48.188;9.964;2023-12-20T08:17:22;8.57;;;3.00;;
29246;SDS011;16272;48.188;9.964;2023-12-20T08:19:48;9.52;;;3.20;;
29246;SDS011;16272;48.188;9.964;2023-12-20T08:22:13;7.87;;;2.53;;
29246;SDS011;16272;48.188;9.964;2023-12-20T08:24:39;8.50;;;3.22;;
29246;SDS011;16272;48.188;9.964;2023-12-20T08:27:04;10.00;;;3.47;;
29246;SDS011;16272;48.188;9.964;2023-12-20T08:29:30;7.80;;;2.70;;
29246;SDS011;16272;48.188;9.964;2023-12-20T08:31:55;8.87;;;3.43;;
29246;SDS011;16272;48.188;9.964;2023-12-20T08:34:21;8.95;;;3.28;;
29246;SDS011;16272;48.188;9.964;2023-12-20T08:36:46;8.10;;;2.90;;
29246;SDS011;16272;48.188;9.964;2023-12-20T08:39:12;8.73;;;3.30;;
29246;SDS011;16272;48.188;9.964;2023-12-20T08:41:37;9.00;;;3.33;;
29246;SDS011;16272;48.188;9.964;2023-12-20T08:44:02;8.95;;;3.45;;
29246;SDS011;16272;48.188;9.964;2023-12-20T08:46:28;7.73;;;2.60;;
29246;SDS011;16272;48.188;9.964;2023-12-20T08:48:54;8.35;;;3.33;;
29246;SDS011;16272;48.188;9.964;2023-12-20T08:51:19;9.40;;;3.77;;
29246;SDS011;16272;48.188;9.964;2023-12-20T08:53:46;7.45;;;2.50;;
29246;SDS011;16272;48.188;9.964;2023-12-20T08:56:12;8.88;;;3.47;;
29246;SDS011;16272;48.188;9.964;2023-12-20T08:58:38;7.87;;;3.00;;
29246;SDS011;16272;48.188;9.964;2023-12-20T09:01:03;7.67;;;2.50;;
29246;SDS011;16272;48.188;9.964;2023-12-20T09:03:28;8.63;;;3.47;;
29246;SDS011;16272;48.188;9.964;2023-12-20T09:05:53;8.95;;;3.42;;
29246;SDS011;16272;48.188;9.964;2023-12-20T09:08:19;9.57;;;3.53;;
29246;SDS011;16272;48.188;9.964;2023-12-20T09:10:44;8.80;;;3.40;;
29246;SDS011;16272;48.188;9.964;2023-12-20T09:13:09;7.03;;;2.63;;
29246;SDS011;16272;48.188;9.964;2023-12-20T09:15:35;7.70;;;2.77;;
29246;SDS011;16272;48.188;9.964;2023-12-20T09:18:00;7.07;;;2.60;;
29246;SDS011;16272;48.188;9.964;2023-12-20T09:20:26;8.90;;;2.53;;
29246;SDS011;16272;48.188;9.964;2023-12-20T09:22:52;8.00;;;3.17;;
29246;SDS011;16272;48.188;9.964;2023-12-20T09:25:17;8.10;;;3.33;;
29246;SDS011;16272;48.188;9.964;2023-12-20T09:27:43;7.10;;;2.60;;
29246;SDS011;16272;48.188;9.964;2023-12-20T09:30:08;8.50;;;3.17;;
29246;SDS011;16272;48.188;9.964;2023-12-20T09:32:34;7.55;;;2.60;;
29246;SDS011;16272;48.188;9.964;2023-12-20T09:34:59;6.97;;;2.20;;
29246;SDS011;16272;48.188;9.964;2023-12-20T09:37:27;8.90;;;3.40;;
29246;SDS011;16272;48.188;9.964;2023-12-20T09:39:53;7.30;;;2.50;;
29246;SDS011;16272;48.188;9.964;2023-12-20T09:42:33;7.50;;;2.53;;
29246;SDS011;16272;48.188;9.964;2023-12-20T09:45:20;7.90;;;3.10;;
29246;SDS011;16272;48.188;9.964;2023-12-20T09:47:50;6.50;;;2.10;;
29246;SDS011;16272;48.188;9.964;2023-12-20T09:50:16;7.20;;;2.60;;
29246;SDS011;16272;48.188;9.964;2023-12-20T09:52:44;7.10;;;2.40;;
29246;SDS011;16272;48.188;9.964;2023-12-20T09:55:14;6.63;;;1.92;;
29246;SDS011;16272;48.188;9.964;2023-12-20T09:57:42;8.55;;;2.10;;
29246;SDS011;16272;48.188;9.964;2023-12-20T10:00:07;7.77;;;2.77;;
29246;SDS011;16272;48.188;9.964;2023-12-20T10:02:34;6.97;;;1.95;;
29246;SDS011;16272;48.188;9.964;2023-12-20T10:05:03;6.40;;;2.10;;
29246;SDS011;16272;48.188;9.964;2023-12-20T10:07:34;7.00;;;2.37;;
29246;SDS011;16272;48.188;9.964;2023-12-20T10:10:00;6.57;;;2.40;;
29246;SDS011;16272;48.188;9.964;2023-12-20T10:12:27;7.68;;;2.50;;
29246;SDS011;16272;48.188;9.964;2023-12-20T10:14:52;6.70;;;2.50;;
29246;SDS011;16272;48.188;9.964;2023-12-20T10:17:17;6.63;;;2.07;;
29246;SDS011;16272;48.188;9.964;2023-12-20T10:19:43;6.60;;;2.47;;
29246;SDS011;16272;48.188;9.964;2023-12-20T10:22:08;6.00;;;2.00;;
29246;SDS011;16272;48.188;9.964;2023-12-20T10:24:35;6.00;;;2.17;;
29246;SDS011;16272;48.188;9.964;2023-12-20T10:29:26;5.93;;;1.83;;
29246;SDS011;16272;48.188;9.964;2023-12-20T10:31:51;6.50;;;1.93;;
29246;SDS011;16272;48.188;9.964;2023-12-20T10:34:22;6.50;;;2.30;;
29246;SDS011;16272;48.188;9.964;2023-12-20T10:36:47;6.15;;;2.03;;
29246;SDS011;16272;48.188;9.964;2023-12-20T10:39:13;6.00;;;2.00;;
29246;SDS011;16272;48.188;9.964;2023-12-20T10:41:40;5.83;;;1.47;;
29246;SDS011;16272;48.188;9.964;2023-12-20T10:44:07;6.57;;;1.80;;
29246;SDS011;16272;48.188;9.964;2023-12-20T10:46:35;5.43;;;1.60;;
29246;SDS011;16272;48.188;9.964;2023-12-20T10:49:02;5.75;;;1.80;;
29246;SDS011;16272;48.188;9.964;2023-12-20T10:51:28;5.30;;;1.50;;
29246;SDS011;16272;48.188;9.964;2023-12-20T10:53:55;5.32;;;1.50;;
29246;SDS011;16272;48.188;9.964;2023-12-20T10:56:21;6.10;;;1.48;;
29246;SDS011;16272;48.188;9.964;2023-12-20T10:58:48;5.40;;;1.55;;
29246;SDS011;16272;48.188;9.964;2023-12-20T11:01:14;5.30;;;1.48;;
29246;SDS011;16272;48.188;9.964;2023-12-20T11:03:42;4.97;;;1.27;;
29246;SDS011;16272;48.188;9.964;2023-12-20T11:09:08;5.18;;;1.40;;
29246;SDS011;16272;48.188;9.964;2023-12-20T11:15:06;5.50;;;1.65;;
29246;SDS011;16272;48.188;9.964;2023-12-20T11:17:32;5.65;;;1.60;;
29246;SDS011;16272;48.188;9.964;2023-12-20T11:22:26;3.37;;;0.80;;
29246;SDS011;16272;48.188;9.964;2023-12-20T11:24:57;3.97;;;1.17;;
29246;SDS011;16272;48.188;9.964;2023-12-20T11:27:28;4.10;;;1.60;;
29246;SDS011;16272;48.188;9.964;2023-12-20T11:29:56;2.95;;;0.90;;
29246;SDS011;16272;48.188;9.964;2023-12-20T11:34:59;5.30;;;1.10;;
29246;SDS011;16272;48.188;9.964;2023-12-20T11:37:37;6.47;;;2.42;;
29246;SDS011;16272;48.188;9.964;2023-12-20T11:40:07;4.73;;;1.10;;
29246;SDS011;16272;48.188;9.964;2023-12-20T11:42:43;4.18;;;1.20;;
29246;SDS011;16272;48.188;9.964;2023-12-20T11:45:11;4.40;;;1.20;;
29246;SDS011;16272;48.188;9.964;2023-12-20T11:47:40;4.28;;;1.10;;
29246;SDS011;16272;48.188;9.964;2023-12-20T11:50:10;5.63;;;1.50;;
29246;SDS011;16272;48.188;9.964;2023-12-20T11:52:35;5.17;;;1.63;;
29246;SDS011;16272;48.188;9.964;2023-12-20T11:55:01;4.60;;;1.10;;
29246;SDS011;16272;48.188;9.964;2023-12-20T11:57:28;4.70;;;1.02;;
29246;SDS011;16272;48.188;9.964;2023-12-20T11:59:54;3.63;;;0.80;;
29246;SDS011;16272;48.188;9.964;2023-12-20T12:02:19;3.77;;;0.80;;
29246;SDS011;16272;48.188;9.964;2023-12-20T12:04:44;5.00;;;0.97;;
29246;SDS011;16272;48.188;9.964;2023-12-20T12:07:09;4.07;;;1.07;;
29246;SDS011;16272;48.188;9.964;2023-12-20T12:09:35;4.37;;;1.00;;
29246;SDS011;16272;48.188;9.964;2023-12-20T12:12:00;4.00;;;1.00;;
29246;SDS011;16272;48.188;9.964;2023-12-20T12:14:26;4.70;;;1.10;;
29246;SDS011;16272;48.188;9.964;2023-12-20T12:16:52;4.70;;;1.20;;
29246;SDS011;16272;48.188;9.964;2023-12-20T12:19:24;4.20;;;1.00;;
29246;SDS011;16272;48.188;9.964;2023-12-20T12:21:51;4.38;;;1.13;;
29246;SDS011;16272;48.188;9.964;2023-12-20T12:24:29;4.72;;;1.00;;
29246;SDS011;16272;48.188;9.964;2023-12-20T12:26:56;4.60;;;1.27;;
29246;SDS011;16272;48.188;9.964;2023-12-20T12:29:22;4.65;;;1.27;;
29246;SDS011;16272;48.188;9.964;2023-12-20T12:31:49;4.95;;;1.10;;
29246;SDS011;16272;48.188;9.964;2023-12-20T12:34:14;4.77;;;1.10;;
29246;SDS011;16272;48.188;9.964;2023-12-20T12:36:41;4.13;;;0.90;;
29246;SDS011;16272;48.188;9.964;2023-12-20T12:39:06;4.87;;;1.20;;
29246;SDS011;16272;48.188;9.964;2023-12-20T12:41:32;5.20;;;1.40;;
29246;SDS011;16272;48.188;9.964;2023-12-20T12:43:57;3.77;;;1.17;;
29246;SDS011;16272;48.188;9.964;2023-12-20T12:46:22;5.07;;;1.35;;
29246;SDS011;16272;48.188;9.964;2023-12-20T12:48:47;4.80;;;1.17;;
29246;SDS011;16272;48.188;9.964;2023-12-20T12:53:39;4.30;;;0.90;;
29246;SDS011;16272;48.188;9.964;2023-12-20T12:56:05;4.40;;;1.07;;
29246;SDS011;16272;48.188;9.964;2023-12-20T12:58:31;4.63;;;1.13;;
29246;SDS011;16272;48.188;9.964;2023-12-20T13:00:57;4.97;;;1.10;;
29246;SDS011;16272;48.188;9.964;2023-12-20T13:03:22;5.00;;;1.10;;
29246;SDS011;16272;48.188;9.964;2023-12-20T13:05:47;4.47;;;1.00;;
29246;SDS011;16272;48.188;9.964;2023-12-20T13:08:13;4.63;;;1.10;;
29246;SDS011;16272;48.188;9.964;2023-12-20T13:10:40;4.25;;;1.00;;
29246;SDS011;16272;48.188;9.964;2023-12-20T13:13:05;4.40;;;1.17;;
29246;SDS011;16272;48.188;9.964;2023-12-20T13:15:31;4.32;;;1.27;;
29246;SDS011;16272;48.188;9.964;2023-12-20T13:17:56;3.70;;;1.07;;
29246;SDS011;16272;48.188;9.964;2023-12-20T13:20:21;4.77;;;1.00;;
29246;SDS011;16272;48.188;9.964;2023-12-20T13:22:47;4.13;;;1.00;;
29246;SDS011;16272;48.188;9.964;2023-12-20T13:25:13;4.45;;;0.90;;
29246;SDS011;16272;48.188;9.964;2023-12-20T13:27:38;5.00;;;1.50;;
29246;SDS011;16272;48.188;9.964;2023-12-20T13:30:04;5.20;;;1.83;;
29246;SDS011;16272;48.188;9.964;2023-12-20T13:32:30;4.73;;;1.33;;
29246;SDS011;16272;48.188;9.964;2023-12-20T13:34:55;4.78;;;1.15;;
29246;SDS011;16272;48.188;9.964;2023-12-20T13:37:21;13.97;;;5.83;;
29246;SDS011;16272;48.188;9.964;2023-12-20T13:39:46;4.97;;;1.10;;
29246;SDS011;16272;48.188;9.964;2023-12-20T13:42:12;4.97;;;1.30;;
29246;SDS011;16272;48.188;9.964;2023-12-20T13:44:37;4.83;;;1.10;;
29246;SDS011;16272;48.188;9.964;2023-12-20T13:47:02;4.40;;;1.00;;
29246;SDS011;16272;48.188;9.964;2023-12-20T13:49:28;4.67;;;1.00;;
29246;SDS011;16272;48.188;9.964;2023-12-20T13:51:54;4.53;;;1.10;;
29246;SDS011;16272;48.188;9.964;2023-12-20T13:54:20;4.57;;;1.02;;
29246;SDS011;16272;48.188;9.964;2023-12-20T13:56:47;4.53;;;0.93;;
29246;SDS011;16272;48.188;9.964;2023-12-20T13:59:12;4.60;;;1.20;;
29246;SDS011;16272;48.188;9.964;2023-12-20T14:01:38;4.73;;;1.20;;
29246;SDS011;16272;48.188;9.964;2023-12-20T14:04:04;4.97;;;1.37;;
29246;SDS011;16272;48.188;9.964;2023-12-20T14:06:29;4.55;;;1.00;;
29246;SDS011;16272;48.188;9.964;2023-12-20T14:08:54;4.83;;;0.90;;
29246;SDS011;16272;48.188;9.964;2023-12-20T14:11:20;4.93;;;1.10;;
29246;SDS011;16272;48.188;9.964;2023-12-20T14:13:45;5.00;;;1.27;;
29246;SDS011;16272;48.188;9.964;2023-12-20T14:16:10;5.67;;;1.67;;
29246;SDS011;16272;48.188;9.964;2023-12-20T14:18:36;5.90;;;1.50;;
29246;SDS011;16272;48.188;9.964;2023-12-20T14:21:01;5.72;;;1.42;;
29246;SDS011;16272;48.188;9.964;2023-12-20T14:23:26;5.67;;;1.57;;
29246;SDS011;16272;48.188;9.964;2023-12-20T14:25:52;5.70;;;1.57;;
29246;SDS011;16272;48.188;9.964;2023-12-20T14:28:17;7.93;;;1.60;;
29246;SDS011;16272;48.188;9.964;2023-12-20T14:30:43;6.13;;;1.60;;
29246;SDS011;16272;48.188;9.964;2023-12-20T14:33:09;5.63;;;1.53;;
29246;SDS011;16272;48.188;9.964;2023-12-20T14:35:34;6.47;;;1.57;;
29246;SDS011;16272;48.188;9.964;2023-12-20T14:37:59;5.70;;;1.30;;
29246;SDS011;16272;48.188;9.964;2023-12-20T14:40:24;5.97;;;1.40;;
29246;SDS011;16272;48.188;9.964;2023-12-20T14:42:50;4.53;;;1.00;;
29246;SDS011;16272;48.188;9.964;2023-12-20T14:45:16;5.63;;;1.23;;
29246;SDS011;16272;48.188;9.964;2023-12-20T14:47:41;5.30;;;1.20;;
29246;SDS011;16272;48.188;9.964;2023-12-20T14:50:07;5.37;;;1.23;;
29246;SDS011;16272;48.188;9.964;2023-12-20T14:52:32;6.67;;;1.30;;
29246;SDS011;16272;48.188;9.964;2023-12-20T14:55:01;5.78;;;1.23;;